This is the latest recevied weather packets stored in our database for station/object 9A3SWO. If no packets are shown the sender has not sent any weather packets the latest 10 day(s).
| Time | Temp. | Humidity | Pressure | Rain* | Wind** | Luminosity | Snow |
|---|---|---|---|---|---|---|---|
| 1787963904 | 26.11° C | 56% | 1012.9 hPa | - | - | - | - |
| 1787963304 | 26.67° C | 54% | 1012.9 hPa | - | - | - | - |
| 1787962704 | 27.78° C | 51% | 1012.9 hPa | - | - | - | - |
| 1787962105 | 28.33° C | 51% | 1012.9 hPa | - | - | - | - |
| 1787961504 | 28.89° C | 51% | 1012.6 hPa | - | - | - | - |
| 1787960904 | 28.89° C | 51% | 1012.8 hPa | - | - | - | - |
| 1787960304 | 28.89° C | 51% | 1013 hPa | - | - | - | - |
| 1787959704 | 28.89° C | 51% | 1012.7 hPa | - | - | - | - |
| 1787959103 | 29.44° C | 50% | 1012.7 hPa | - | - | - | - |
| 1787958503 | 29.44° C | 51% | 1013.1 hPa | - | - | - | - |
| 1787957905 | 28.89° C | 50% | 1013 hPa | - | - | - | - |
| 1787957303 | 28.33° C | 48% | 1013.4 hPa | - | - | - | - |
| 1787956704 | 28.89° C | 47% | 1013.8 hPa | - | - | - | - |
| 1787956103 | 28.33° C | 48% | 1013 hPa | - | - | - | - |
| 1787955505 | 28.33° C | 52% | 1012.9 hPa | - | - | - | - |
| 1787954903 | 27.78° C | 53% | 1013.9 hPa | - | - | - | - |
| 1787954304 | 26.67° C | 55% | 1014.1 hPa | - | - | - | - |
| 1787953704 | 27.22° C | 54% | 1014.2 hPa | - | - | - | - |
| 1787953103 | 27.22° C | 54% | 1014 hPa | - | - | - | - |
| 1787952504 | 27.22° C | 53% | 1013.5 hPa | - | - | - | - |
| 1787951904 | 27.22° C | 53% | 1013.4 hPa | - | - | - | - |
| 1787951303 | 27.78° C | 53% | 1013.2 hPa | - | - | - | - |
| 1787950704 | 27.78° C | 53% | 1013 hPa | - | - | - | - |
| 1787950103 | 27.78° C | 53% | 1012.9 hPa | - | - | - | - |
| 1787949503 | 28.33° C | 51% | 1012.9 hPa | - | - | - | - |
* Rain since midnight (hover to see other rain measurements)
** Current wind speed in m/s (hover to see current wind gust speed)